map of YXP home
YXP - Airport
Location
City:  Pangnirtung, Nunavut, Canada
Name:Pangnirtung Airport
ICAO:CYXP
IATA:YXP

Details
Type:Airport (Airfield)
Use:Public/Civil
Latitude:6608'42"N (66.145000)
Longitude:6542'49"W (-65.713610)
Elevation:79 ft (24 m)
Variation:29.61W (WMM2015v2 magnetic declination)
0.50 annual change
Runways:1
Longest:2920 ft (890 m)

Time
Time Zone:UTC-5 (DST-4)
Local Time:

Weather
METAR:CYXP 041400Z 10007KT 060V140 15SM BKN110 BKN240 M07/M18 A2972 RMK AC6CI1 SLP069
TAF:CYXP 041338Z 0414/0423 09010G20KT P6SM FEW050 BKN100
RMK NXT FCST BY 041900Z

Related Locations
Nearby:
Farthest:YWKS: 12346 mi / 19869 km
Wilkins Runway (Casey), Upper Peterson Glacier, AQ

Find:

   beyond  
but within

Other Information
Maps:
NOTAMs:
Links:
Sources:

  
  • flag of Canada
  • flag of Nunavut
  

Airport Diagram

Airport diagram for YXP

Airport diagram PDF

Sectional Chart

Flight Planning
at skyvector.com

Satellite Image

Google Maps Satellite view

 

Copyright © 2004-2019 Karl L. Swartz. All rights reserved.
The Great Circle Mapper name and logo are trademarks of the Great Circle Mapper.
All other trademarks mentioned herein belong to their respective owners.
Please see credits for attibutions and further copyright information.

  Follow gcmap on Facebook Follow gcmap on Twitter GCmap on LinkedIn

hCard Microformat

Geo Microformat